sensor_id;sensor_type;location;lat;lon;timestamp;temperature;humidity
35559;DHT22;21661;50.794;-1.066;2023-07-29T00:01:34;17.70;99.90
35559;DHT22;21661;50.794;-1.066;2023-07-29T00:04:00;17.80;99.90
35559;DHT22;21661;50.794;-1.066;2023-07-29T00:06:27;17.80;99.90
35559;DHT22;21661;50.794;-1.066;2023-07-29T00:08:52;17.80;99.90
35559;DHT22;21661;50.794;-1.066;2023-07-29T00:11:18;17.80;99.90
35559;DHT22;21661;50.794;-1.066;2023-07-29T00:13:44;17.80;99.90
35559;DHT22;21661;50.794;-1.066;2023-07-29T00:16:09;17.80;99.90
35559;DHT22;21661;50.794;-1.066;2023-07-29T00:18:35;17.80;99.90
35559;DHT22;21661;50.794;-1.066;2023-07-29T00:21:01;17.80;99.90
35559;DHT22;21661;50.794;-1.066;2023-07-29T00:23:27;17.90;99.90
35559;DHT22;21661;50.794;-1.066;2023-07-29T00:25:53;17.80;99.90
35559;DHT22;21661;50.794;-1.066;2023-07-29T00:28:18;17.80;99.90
35559;DHT22;21661;50.794;-1.066;2023-07-29T00:30:44;17.80;99.90
35559;DHT22;21661;50.794;-1.066;2023-07-29T00:33:10;17.80;99.90
35559;DHT22;21661;50.794;-1.066;2023-07-29T00:35:35;17.90;99.90
35559;DHT22;21661;50.794;-1.066;2023-07-29T00:38:01;17.80;99.90
35559;DHT22;21661;50.794;-1.066;2023-07-29T00:40:28;17.80;99.90
35559;DHT22;21661;50.794;-1.066;2023-07-29T00:42:54;17.90;99.90
35559;DHT22;21661;50.794;-1.066;2023-07-29T00:45:19;17.90;99.90
35559;DHT22;21661;50.794;-1.066;2023-07-29T00:47:45;17.90;99.90
35559;DHT22;21661;50.794;-1.066;2023-07-29T00:50:12;17.90;99.90
35559;DHT22;21661;50.794;-1.066;2023-07-29T00:52:38;17.90;99.90
35559;DHT22;21661;50.794;-1.066;2023-07-29T00:55:05;17.90;99.90
35559;DHT22;21661;50.794;-1.066;2023-07-29T00:57:31;17.90;99.90
35559;DHT22;21661;50.794;-1.066;2023-07-29T00:59:57;17.80;99.90
35559;DHT22;21661;50.794;-1.066;2023-07-29T01:02:23;17.80;99.90
35559;DHT22;21661;50.794;-1.066;2023-07-29T01:04:56;17.90;99.90
35559;DHT22;21661;50.794;-1.066;2023-07-29T01:18:16;17.80;99.90
35559;DHT22;21661;50.794;-1.066;2023-07-29T01:20:46;17.70;99.90
35559;DHT22;21661;50.794;-1.066;2023-07-29T01:23:12;17.80;99.90
35559;DHT22;21661;50.794;-1.066;2023-07-29T01:25:38;17.80;99.90
35559;DHT22;21661;50.794;-1.066;2023-07-29T01:28:04;17.70;99.90
35559;DHT22;21661;50.794;-1.066;2023-07-29T01:30:35;17.70;99.90
35559;DHT22;21661;50.794;-1.066;2023-07-29T01:33:22;17.80;99.90
35559;DHT22;21661;50.794;-1.066;2023-07-29T01:36:01;17.80;99.90
35559;DHT22;21661;50.794;-1.066;2023-07-29T01:38:33;17.80;99.90
35559;DHT22;21661;50.794;-1.066;2023-07-29T01:41:04;17.80;99.90
35559;DHT22;21661;50.794;-1.066;2023-07-29T01:43:30;17.80;99.90
35559;DHT22;21661;50.794;-1.066;2023-07-29T01:45:56;17.80;99.90
35559;DHT22;21661;50.794;-1.066;2023-07-29T01:48:22;17.80;99.90
35559;DHT22;21661;50.794;-1.066;2023-07-29T01:50:48;17.80;99.90
35559;DHT22;21661;50.794;-1.066;2023-07-29T01:53:13;17.80;99.90
35559;DHT22;21661;50.794;-1.066;2023-07-29T01:55:40;17.80;99.90
35559;DHT22;21661;50.794;-1.066;2023-07-29T01:58:05;17.80;99.90
35559;DHT22;21661;50.794;-1.066;2023-07-29T02:00:31;17.70;99.90
35559;DHT22;21661;50.794;-1.066;2023-07-29T02:02:56;17.80;99.90
35559;DHT22;21661;50.794;-1.066;2023-07-29T02:05:22;17.80;99.90
35559;DHT22;21661;50.794;-1.066;2023-07-29T02:07:48;17.70;99.90
35559;DHT22;21661;50.794;-1.066;2023-07-29T02:10:13;17.70;99.90
35559;DHT22;21661;50.794;-1.066;2023-07-29T02:12:39;17.70;99.90
35559;DHT22;21661;50.794;-1.066;2023-07-29T02:15:05;17.60;99.90
35559;DHT22;21661;50.794;-1.066;2023-07-29T02:17:31;17.50;99.90
35559;DHT22;21661;50.794;-1.066;2023-07-29T02:19:57;17.50;99.90
35559;DHT22;21661;50.794;-1.066;2023-07-29T02:22:22;17.40;99.90
35559;DHT22;21661;50.794;-1.066;2023-07-29T02:24:48;17.30;99.90
35559;DHT22;21661;50.794;-1.066;2023-07-29T02:27:13;17.10;99.90
35559;DHT22;21661;50.794;-1.066;2023-07-29T02:29:39;17.10;99.90
35559;DHT22;21661;50.794;-1.066;2023-07-29T02:32:05;17.00;99.90
35559;DHT22;21661;50.794;-1.066;2023-07-29T02:34:31;17.00;99.90
35559;DHT22;21661;50.794;-1.066;2023-07-29T02:36:56;17.00;99.90
35559;DHT22;21661;50.794;-1.066;2023-07-29T02:39:22;17.00;99.90
35559;DHT22;21661;50.794;-1.066;2023-07-29T02:41:48;17.00;99.90
35559;DHT22;21661;50.794;-1.066;2023-07-29T02:44:15;17.00;99.90
35559;DHT22;21661;50.794;-1.066;2023-07-29T02:46:41;17.00;99.90
35559;DHT22;21661;50.794;-1.066;2023-07-29T02:49:06;17.00;99.90
35559;DHT22;21661;50.794;-1.066;2023-07-29T02:51:32;17.00;99.90
35559;DHT22;21661;50.794;-1.066;2023-07-29T02:53:57;17.00;99.90
35559;DHT22;21661;50.794;-1.066;2023-07-29T02:56:23;17.00;99.90
35559;DHT22;21661;50.794;-1.066;2023-07-29T02:58:49;17.00;99.90
35559;DHT22;21661;50.794;-1.066;2023-07-29T03:01:17;17.00;99.90
35559;DHT22;21661;50.794;-1.066;2023-07-29T03:03:42;17.00;99.90
35559;DHT22;21661;50.794;-1.066;2023-07-29T03:06:10;17.10;99.90
35559;DHT22;21661;50.794;-1.066;2023-07-29T03:08:35;17.10;99.90
35559;DHT22;21661;50.794;-1.066;2023-07-29T03:11:12;17.20;99.90
35559;DHT22;21661;50.794;-1.066;2023-07-29T03:13:39;17.20;99.90
35559;DHT22;21661;50.794;-1.066;2023-07-29T03:16:15;17.20;99.90
35559;DHT22;21661;50.794;-1.066;2023-07-29T03:18:43;17.20;99.90
35559;DHT22;21661;50.794;-1.066;2023-07-29T03:21:09;17.20;99.90
35559;DHT22;21661;50.794;-1.066;2023-07-29T03:23:35;17.20;99.90
35559;DHT22;21661;50.794;-1.066;2023-07-29T03:26:02;17.20;99.90
35559;DHT22;21661;50.794;-1.066;2023-07-29T03:28:35;17.20;99.90
35559;DHT22;21661;50.794;-1.066;2023-07-29T03:31:01;17.20;99.90
35559;DHT22;21661;50.794;-1.066;2023-07-29T03:33:28;17.20;99.90
35559;DHT22;21661;50.794;-1.066;2023-07-29T03:35:54;17.20;99.90
35559;DHT22;21661;50.794;-1.066;2023-07-29T03:38:19;17.20;99.90
35559;DHT22;21661;50.794;-1.066;2023-07-29T03:40:45;17.20;99.90
35559;DHT22;21661;50.794;-1.066;2023-07-29T03:43:10;17.20;99.90
35559;DHT22;21661;50.794;-1.066;2023-07-29T03:45:36;17.10;99.90
35559;DHT22;21661;50.794;-1.066;2023-07-29T03:48:03;17.20;99.90
35559;DHT22;21661;50.794;-1.066;2023-07-29T03:50:29;17.20;99.90
35559;DHT22;21661;50.794;-1.066;2023-07-29T03:52:55;17.20;99.90
35559;DHT22;21661;50.794;-1.066;2023-07-29T03:55:21;17.20;99.90
35559;DHT22;21661;50.794;-1.066;2023-07-29T03:57:47;17.20;99.90
35559;DHT22;21661;50.794;-1.066;2023-07-29T04:00:13;17.20;99.90
35559;DHT22;21661;50.794;-1.066;2023-07-29T04:02:38;17.20;99.90
35559;DHT22;21661;50.794;-1.066;2023-07-29T04:05:05;17.20;99.90
35559;DHT22;21661;50.794;-1.066;2023-07-29T04:07:34;17.20;99.90
35559;DHT22;21661;50.794;-1.066;2023-07-29T04:10:00;17.20;99.90
35559;DHT22;21661;50.794;-1.066;2023-07-29T04:12:26;17.20;99.90
35559;DHT22;21661;50.794;-1.066;2023-07-29T04:14:52;17.20;99.90
35559;DHT22;21661;50.794;-1.066;2023-07-29T04:17:17;17.20;99.90
35559;DHT22;21661;50.794;-1.066;2023-07-29T04:19:43;17.30;99.90
35559;DHT22;21661;50.794;-1.066;2023-07-29T04:22:08;17.30;99.90
35559;DHT22;21661;50.794;-1.066;2023-07-29T04:24:34;17.30;99.90
35559;DHT22;21661;50.794;-1.066;2023-07-29T04:26:59;17.30;99.90
35559;DHT22;21661;50.794;-1.066;2023-07-29T04:29:25;17.20;99.90
35559;DHT22;21661;50.794;-1.066;2023-07-29T04:31:51;17.20;99.90
35559;DHT22;21661;50.794;-1.066;2023-07-29T04:34:18;17.30;99.90
35559;DHT22;21661;50.794;-1.066;2023-07-29T04:36:43;17.30;99.90
35559;DHT22;21661;50.794;-1.066;2023-07-29T04:39:09;17.20;99.90
35559;DHT22;21661;50.794;-1.066;2023-07-29T04:41:34;17.20;99.90
35559;DHT22;21661;50.794;-1.066;2023-07-29T04:44:00;17.20;99.90
35559;DHT22;21661;50.794;-1.066;2023-07-29T04:46:26;17.20;99.90
35559;DHT22;21661;50.794;-1.066;2023-07-29T04:48:51;17.20;99.90
35559;DHT22;21661;50.794;-1.066;2023-07-29T04:51:17;17.20;99.90
35559;DHT22;21661;50.794;-1.066;2023-07-29T04:53:42;17.20;99.90
35559;DHT22;21661;50.794;-1.066;2023-07-29T04:56:08;17.20;99.90
35559;DHT22;21661;50.794;-1.066;2023-07-29T04:58:34;17.20;99.90
35559;DHT22;21661;50.794;-1.066;2023-07-29T05:01:01;17.20;99.90
35559;DHT22;21661;50.794;-1.066;2023-07-29T05:03:27;17.30;99.90
35559;DHT22;21661;50.794;-1.066;2023-07-29T05:05:52;17.20;99.90
35559;DHT22;21661;50.794;-1.066;2023-07-29T05:08:20;17.30;99.90
35559;DHT22;21661;50.794;-1.066;2023-07-29T05:10:49;17.30;99.90
35559;DHT22;21661;50.794;-1.066;2023-07-29T05:13:15;17.30;99.90
35559;DHT22;21661;50.794;-1.066;2023-07-29T05:15:40;17.30;99.90
35559;DHT22;21661;50.794;-1.066;2023-07-29T05:18:06;17.30;99.90
35559;DHT22;21661;50.794;-1.066;2023-07-29T05:20:32;17.30;99.90
35559;DHT22;21661;50.794;-1.066;2023-07-29T05:22:57;17.40;99.90
35559;DHT22;21661;50.794;-1.066;2023-07-29T05:25:23;17.40;99.90
35559;DHT22;21661;50.794;-1.066;2023-07-29T05:27:49;17.40;99.90
35559;DHT22;21661;50.794;-1.066;2023-07-29T05:30:14;17.40;99.90
35559;DHT22;21661;50.794;-1.066;2023-07-29T05:32:40;17.40;99.90
35559;DHT22;21661;50.794;-1.066;2023-07-29T05:35:06;17.30;99.90
35559;DHT22;21661;50.794;-1.066;2023-07-29T05:37:32;17.40;99.90
35559;DHT22;21661;50.794;-1.066;2023-07-29T05:39:58;17.40;99.90
35559;DHT22;21661;50.794;-1.066;2023-07-29T05:42:23;17.40;99.90
35559;DHT22;21661;50.794;-1.066;2023-07-29T05:44:49;17.50;99.90
35559;DHT22;21661;50.794;-1.066;2023-07-29T05:47:15;17.50;99.90
35559;DHT22;21661;50.794;-1.066;2023-07-29T05:49:40;17.60;99.90
35559;DHT22;21661;50.794;-1.066;2023-07-29T05:52:06;17.50;99.90
35559;DHT22;21661;50.794;-1.066;2023-07-29T05:54:32;17.50;99.90
35559;DHT22;21661;50.794;-1.066;2023-07-29T05:56:58;17.60;99.90
35559;DHT22;21661;50.794;-1.066;2023-07-29T05:59:23;17.60;99.90
35559;DHT22;21661;50.794;-1.066;2023-07-29T06:01:49;17.70;99.90
35559;DHT22;21661;50.794;-1.066;2023-07-29T06:04:15;17.80;99.90
35559;DHT22;21661;50.794;-1.066;2023-07-29T06:06:40;17.70;99.90
35559;DHT22;21661;50.794;-1.066;2023-07-29T06:09:06;17.80;99.90
35559;DHT22;21661;50.794;-1.066;2023-07-29T06:11:31;17.80;99.90
35559;DHT22;21661;50.794;-1.066;2023-07-29T06:13:57;17.70;99.90
35559;DHT22;21661;50.794;-1.066;2023-07-29T06:16:22;17.80;99.90
35559;DHT22;21661;50.794;-1.066;2023-07-29T06:18:48;17.70;99.90
35559;DHT22;21661;50.794;-1.066;2023-07-29T06:21:14;17.70;99.90
35559;DHT22;21661;50.794;-1.066;2023-07-29T06:23:43;17.60;99.90
35559;DHT22;21661;50.794;-1.066;2023-07-29T06:26:09;17.50;99.90
35559;DHT22;21661;50.794;-1.066;2023-07-29T06:28:34;17.30;99.90
35559;DHT22;21661;50.794;-1.066;2023-07-29T06:31:00;17.20;99.90
35559;DHT22;21661;50.794;-1.066;2023-07-29T06:33:26;17.20;99.90
35559;DHT22;21661;50.794;-1.066;2023-07-29T06:35:52;17.20;99.90
35559;DHT22;21661;50.794;-1.066;2023-07-29T06:38:17;17.20;99.90
35559;DHT22;21661;50.794;-1.066;2023-07-29T06:40:50;17.30;99.90
35559;DHT22;21661;50.794;-1.066;2023-07-29T06:43:16;17.20;99.90
35559;DHT22;21661;50.794;-1.066;2023-07-29T06:45:42;17.30;99.90
35559;DHT22;21661;50.794;-1.066;2023-07-29T06:48:08;17.30;99.90
35559;DHT22;21661;50.794;-1.066;2023-07-29T06:50:33;17.30;99.90
35559;DHT22;21661;50.794;-1.066;2023-07-29T06:52:59;17.40;99.90
35559;DHT22;21661;50.794;-1.066;2023-07-29T06:55:25;17.40;99.90
35559;DHT22;21661;50.794;-1.066;2023-07-29T06:57:50;17.40;99.90
35559;DHT22;21661;50.794;-1.066;2023-07-29T07:00:16;17.50;99.90
35559;DHT22;21661;50.794;-1.066;2023-07-29T07:02:42;17.40;99.90
35559;DHT22;21661;50.794;-1.066;2023-07-29T07:05:07;17.40;99.90
35559;DHT22;21661;50.794;-1.066;2023-07-29T07:07:33;17.50;99.90
35559;DHT22;21661;50.794;-1.066;2023-07-29T07:10:01;17.50;99.90
35559;DHT22;21661;50.794;-1.066;2023-07-29T07:12:27;17.50;99.90
35559;DHT22;21661;50.794;-1.066;2023-07-29T07:14:52;17.70;99.90
35559;DHT22;21661;50.794;-1.066;2023-07-29T07:17:18;17.60;99.90
35559;DHT22;21661;50.794;-1.066;2023-07-29T07:19:43;17.60;99.90
35559;DHT22;21661;50.794;-1.066;2023-07-29T07:22:09;17.60;99.90
35559;DHT22;21661;50.794;-1.066;2023-07-29T07:24:35;17.70;99.90
35559;DHT22;21661;50.794;-1.066;2023-07-29T07:27:00;17.70;99.90
35559;DHT22;21661;50.794;-1.066;2023-07-29T07:29:26;17.70;99.90
35559;DHT22;21661;50.794;-1.066;2023-07-29T07:31:53;17.70;99.90
35559;DHT22;21661;50.794;-1.066;2023-07-29T07:34:20;17.70;99.90
35559;DHT22;21661;50.794;-1.066;2023-07-29T07:36:46;17.80;99.90
35559;DHT22;21661;50.794;-1.066;2023-07-29T07:39:12;17.80;99.90
35559;DHT22;21661;50.794;-1.066;2023-07-29T07:41:38;17.80;99.90
35559;DHT22;21661;50.794;-1.066;2023-07-29T07:44:03;17.90;99.90
35559;DHT22;21661;50.794;-1.066;2023-07-29T07:46:29;17.80;99.90
35559;DHT22;21661;50.794;-1.066;2023-07-29T07:48:55;17.90;99.90
35559;DHT22;21661;50.794;-1.066;2023-07-29T07:51:20;17.90;99.90
35559;DHT22;21661;50.794;-1.066;2023-07-29T07:53:46;18.00;99.90
35559;DHT22;21661;50.794;-1.066;2023-07-29T07:56:12;18.00;99.90
35559;DHT22;21661;50.794;-1.066;2023-07-29T07:58:38;18.10;99.90
35559;DHT22;21661;50.794;-1.066;2023-07-29T08:01:05;18.20;99.90
35559;DHT22;21661;50.794;-1.066;2023-07-29T08:03:32;18.20;99.90
35559;DHT22;21661;50.794;-1.066;2023-07-29T08:05:58;18.20;99.90
35559;DHT22;21661;50.794;-1.066;2023-07-29T08:08:24;18.20;99.90
35559;DHT22;21661;50.794;-1.066;2023-07-29T08:10:50;18.20;99.90
35559;DHT22;21661;50.794;-1.066;2023-07-29T08:13:15;18.30;99.90
35559;DHT22;21661;50.794;-1.066;2023-07-29T08:15:41;18.50;99.90
35559;DHT22;21661;50.794;-1.066;2023-07-29T08:18:07;18.50;99.90
35559;DHT22;21661;50.794;-1.066;2023-07-29T08:20:32;18.60;99.90
35559;DHT22;21661;50.794;-1.066;2023-07-29T08:22:58;18.60;99.90
35559;DHT22;21661;50.794;-1.066;2023-07-29T08:25:24;18.70;99.90
35559;DHT22;21661;50.794;-1.066;2023-07-29T08:27:49;18.70;99.90
35559;DHT22;21661;50.794;-1.066;2023-07-29T08:30:15;18.80;99.90
35559;DHT22;21661;50.794;-1.066;2023-07-29T08:32:41;18.80;99.90
35559;DHT22;21661;50.794;-1.066;2023-07-29T08:35:07;18.80;99.90
35559;DHT22;21661;50.794;-1.066;2023-07-29T08:37:33;18.70;99.90
35559;DHT22;21661;50.794;-1.066;2023-07-29T08:39:59;18.60;99.90
35559;DHT22;21661;50.794;-1.066;2023-07-29T08:42:29;18.50;99.90
35559;DHT22;21661;50.794;-1.066;2023-07-29T08:44:56;18.50;99.90
35559;DHT22;21661;50.794;-1.066;2023-07-29T08:47:25;18.50;99.90
35559;DHT22;21661;50.794;-1.066;2023-07-29T08:49:51;18.60;99.90
35559;DHT22;21661;50.794;-1.066;2023-07-29T08:52:18;18.60;99.90
35559;DHT22;21661;50.794;-1.066;2023-07-29T08:54:44;18.70;99.90
35559;DHT22;21661;50.794;-1.066;2023-07-29T08:57:10;18.80;99.90
35559;DHT22;21661;50.794;-1.066;2023-07-29T08:59:36;18.90;99.90
35559;DHT22;21661;50.794;-1.066;2023-07-29T09:02:03;18.90;99.90
35559;DHT22;21661;50.794;-1.066;2023-07-29T09:04:28;18.90;99.90
35559;DHT22;21661;50.794;-1.066;2023-07-29T09:06:56;18.90;99.90
35559;DHT22;21661;50.794;-1.066;2023-07-29T09:09:21;18.90;99.90
35559;DHT22;21661;50.794;-1.066;2023-07-29T09:11:48;19.00;99.90
35559;DHT22;21661;50.794;-1.066;2023-07-29T09:14:14;19.00;99.90
35559;DHT22;21661;50.794;-1.066;2023-07-29T09:16:40;19.20;99.90
35559;DHT22;21661;50.794;-1.066;2023-07-29T09:19:06;19.20;99.90
35559;DHT22;21661;50.794;-1.066;2023-07-29T09:21:32;19.30;99.90
35559;DHT22;21661;50.794;-1.066;2023-07-29T09:24:03;19.40;99.90
35559;DHT22;21661;50.794;-1.066;2023-07-29T09:26:30;19.50;99.90
35559;DHT22;21661;50.794;-1.066;2023-07-29T09:28:57;19.50;99.90
35559;DHT22;21661;50.794;-1.066;2023-07-29T09:31:25;19.50;99.90
35559;DHT22;21661;50.794;-1.066;2023-07-29T09:33:56;19.50;99.90
35559;DHT22;21661;50.794;-1.066;2023-07-29T09:36:23;19.50;99.90
35559;DHT22;21661;50.794;-1.066;2023-07-29T09:38:53;19.50;99.90
35559;DHT22;21661;50.794;-1.066;2023-07-29T09:41:19;19.60;99.90
35559;DHT22;21661;50.794;-1.066;2023-07-29T09:43:44;19.70;99.90
35559;DHT22;21661;50.794;-1.066;2023-07-29T09:46:10;19.70;99.90
35559;DHT22;21661;50.794;-1.066;2023-07-29T09:48:37;19.80;99.90
35559;DHT22;21661;50.794;-1.066;2023-07-29T09:51:13;19.80;99.90
35559;DHT22;21661;50.794;-1.066;2023-07-29T09:53:46;19.70;99.90
35559;DHT22;21661;50.794;-1.066;2023-07-29T09:56:13;19.70;99.90
35559;DHT22;21661;50.794;-1.066;2023-07-29T09:58:39;19.60;99.90
35559;DHT22;21661;50.794;-1.066;2023-07-29T10:01:08;19.70;99.90
35559;DHT22;21661;50.794;-1.066;2023-07-29T10:03:34;19.70;99.90
35559;DHT22;21661;50.794;-1.066;2023-07-29T10:06:05;19.80;99.90
35559;DHT22;21661;50.794;-1.066;2023-07-29T10:08:31;19.80;99.90
35559;DHT22;21661;50.794;-1.066;2023-07-29T10:11:01;19.90;99.90
35559;DHT22;21661;50.794;-1.066;2023-07-29T10:13:27;20.10;99.90
35559;DHT22;21661;50.794;-1.066;2023-07-29T10:15:56;20.20;99.90
35559;DHT22;21661;50.794;-1.066;2023-07-29T10:18:23;20.30;99.90
35559;DHT22;21661;50.794;-1.066;2023-07-29T10:20:52;20.30;99.90
35559;DHT22;21661;50.794;-1.066;2023-07-29T10:23:21;20.30;99.90
35559;DHT22;21661;50.794;-1.066;2023-07-29T10:25:51;20.30;99.90
35559;DHT22;21661;50.794;-1.066;2023-07-29T10:28:20;20.30;99.90
35559;DHT22;21661;50.794;-1.066;2023-07-29T10:30:50;20.20;99.90
35559;DHT22;21661;50.794;-1.066;2023-07-29T10:33:16;20.20;99.90
35559;DHT22;21661;50.794;-1.066;2023-07-29T10:35:42;20.30;99.90
35559;DHT22;21661;50.794;-1.066;2023-07-29T10:38:08;20.40;99.90
35559;DHT22;21661;50.794;-1.066;2023-07-29T10:40:52;20.50;99.90
35559;DHT22;21661;50.794;-1.066;2023-07-29T10:43:33;20.60;99.90
35559;DHT22;21661;50.794;-1.066;2023-07-29T10:46:17;20.60;99.90
35559;DHT22;21661;50.794;-1.066;2023-07-29T10:51:29;20.70;99.90
35559;DHT22;21661;50.794;-1.066;2023-07-29T10:54:13;20.80;99.90
35559;DHT22;21661;50.794;-1.066;2023-07-29T10:56:47;20.80;99.90
35559;DHT22;21661;50.794;-1.066;2023-07-29T11:01:42;20.70;99.90
35559;DHT22;21661;50.794;-1.066;2023-07-29T11:07:18;20.70;99.90
35559;DHT22;21661;50.794;-1.066;2023-07-29T11:12:39;20.70;99.90
35559;DHT22;21661;50.794;-1.066;2023-07-29T11:17:47;20.70;99.90
35559;DHT22;21661;50.794;-1.066;2023-07-29T11:20:15;20.70;99.90
35559;DHT22;21661;50.794;-1.066;2023-07-29T11:22:41;20.70;99.90
35559;DHT22;21661;50.794;-1.066;2023-07-29T11:25:08;20.80;99.90
35559;DHT22;21661;50.794;-1.066;2023-07-29T11:27:35;20.90;99.90
35559;DHT22;21661;50.794;-1.066;2023-07-29T11:30:05;20.90;99.90
35559;DHT22;21661;50.794;-1.066;2023-07-29T11:32:31;20.90;99.90
35559;DHT22;21661;50.794;-1.066;2023-07-29T11:35:02;20.80;99.90
35559;DHT22;21661;50.794;-1.066;2023-07-29T11:37:27;20.90;99.90
35559;DHT22;21661;50.794;-1.066;2023-07-29T11:39:53;20.90;99.90
35559;DHT22;21661;50.794;-1.066;2023-07-29T11:42:19;21.00;99.90
35559;DHT22;21661;50.794;-1.066;2023-07-29T11:44:45;21.00;99.90
35559;DHT22;21661;50.794;-1.066;2023-07-29T11:47:11;21.00;99.90
35559;DHT22;21661;50.794;-1.066;2023-07-29T11:49:40;21.10;99.90
35559;DHT22;21661;50.794;-1.066;2023-07-29T11:52:10;21.10;99.90
35559;DHT22;21661;50.794;-1.066;2023-07-29T11:54:37;21.20;99.90
35559;DHT22;21661;50.794;-1.066;2023-07-29T11:57:07;21.20;99.90
35559;DHT22;21661;50.794;-1.066;2023-07-29T11:59:34;21.20;99.90
35559;DHT22;21661;50.794;-1.066;2023-07-29T12:02:12;21.30;99.90
35559;DHT22;21661;50.794;-1.066;2023-07-29T12:04:39;21.30;99.90
35559;DHT22;21661;50.794;-1.066;2023-07-29T12:07:06;21.30;99.90
35559;DHT22;21661;50.794;-1.066;2023-07-29T12:09:32;21.30;99.90
35559;DHT22;21661;50.794;-1.066;2023-07-29T12:11:58;21.30;99.90
35559;DHT22;21661;50.794;-1.066;2023-07-29T12:14:29;21.30;99.90
35559;DHT22;21661;50.794;-1.066;2023-07-29T12:16:54;21.40;99.90
35559;DHT22;21661;50.794;-1.066;2023-07-29T12:19:20;21.40;99.90
35559;DHT22;21661;50.794;-1.066;2023-07-29T12:21:48;21.40;99.90
35559;DHT22;21661;50.794;-1.066;2023-07-29T12:24:14;21.30;99.90
35559;DHT22;21661;50.794;-1.066;2023-07-29T12:26:41;21.30;99.90
35559;DHT22;21661;50.794;-1.066;2023-07-29T12:29:14;21.30;99.90
35559;DHT22;21661;50.794;-1.066;2023-07-29T12:31:40;21.30;99.90
35559;DHT22;21661;50.794;-1.066;2023-07-29T12:34:06;21.30;99.90
35559;DHT22;21661;50.794;-1.066;2023-07-29T12:36:46;21.30;99.90
35559;DHT22;21661;50.794;-1.066;2023-07-29T12:39:22;21.30;99.90
35559;DHT22;21661;50.794;-1.066;2023-07-29T12:41:51;21.40;99.90
35559;DHT22;21661;50.794;-1.066;2023-07-29T12:44:17;21.40;99.90
35559;DHT22;21661;50.794;-1.066;2023-07-29T12:46:43;21.30;99.90
35559;DHT22;21661;50.794;-1.066;2023-07-29T12:49:08;21.50;99.90
35559;DHT22;21661;50.794;-1.066;2023-07-29T12:51:34;21.50;99.90
35559;DHT22;21661;50.794;-1.066;2023-07-29T12:54:00;21.60;99.90
35559;DHT22;21661;50.794;-1.066;2023-07-29T12:56:25;21.60;99.90
35559;DHT22;21661;50.794;-1.066;2023-07-29T12:58:52;21.60;99.90
35559;DHT22;21661;50.794;-1.066;2023-07-29T13:01:17;21.70;99.90
35559;DHT22;21661;50.794;-1.066;2023-07-29T13:03:44;21.70;99.90
35559;DHT22;21661;50.794;-1.066;2023-07-29T13:06:09;21.60;99.90
35559;DHT22;21661;50.794;-1.066;2023-07-29T13:08:35;21.60;99.90
35559;DHT22;21661;50.794;-1.066;2023-07-29T13:11:03;21.60;99.90
35559;DHT22;21661;50.794;-1.066;2023-07-29T13:13:29;21.70;99.90
35559;DHT22;21661;50.794;-1.066;2023-07-29T13:15:55;21.80;99.90
35559;DHT22;21661;50.794;-1.066;2023-07-29T13:18:21;21.80;99.90
35559;DHT22;21661;50.794;-1.066;2023-07-29T13:20:47;21.80;99.90
35559;DHT22;21661;50.794;-1.066;2023-07-29T13:23:13;21.90;99.90
35559;DHT22;21661;50.794;-1.066;2023-07-29T13:25:38;21.80;99.90
35559;DHT22;21661;50.794;-1.066;2023-07-29T13:28:04;21.70;99.90
35559;DHT22;21661;50.794;-1.066;2023-07-29T13:30:30;21.80;99.90
35559;DHT22;21661;50.794;-1.066;2023-07-29T13:32:56;21.80;99.90
35559;DHT22;21661;50.794;-1.066;2023-07-29T13:35:21;21.80;99.90
35559;DHT22;21661;50.794;-1.066;2023-07-29T13:37:47;22.00;99.90
35559;DHT22;21661;50.794;-1.066;2023-07-29T13:40:12;22.00;99.90
35559;DHT22;21661;50.794;-1.066;2023-07-29T13:42:41;22.10;99.90
35559;DHT22;21661;50.794;-1.066;2023-07-29T13:45:07;22.10;99.90
35559;DHT22;21661;50.794;-1.066;2023-07-29T13:47:41;22.00;99.90
35559;DHT22;21661;50.794;-1.066;2023-07-29T13:50:09;22.00;99.90
35559;DHT22;21661;50.794;-1.066;2023-07-29T13:52:36;22.10;99.90
35559;DHT22;21661;50.794;-1.066;2023-07-29T13:55:02;22.10;99.90
35559;DHT22;21661;50.794;-1.066;2023-07-29T13:57:28;22.10;99.90
35559;DHT22;21661;50.794;-1.066;2023-07-29T13:59:56;22.00;99.90
35559;DHT22;21661;50.794;-1.066;2023-07-29T14:02:22;22.00;99.90
35559;DHT22;21661;50.794;-1.066;2023-07-29T14:04:47;21.90;99.90
35559;DHT22;21661;50.794;-1.066;2023-07-29T14:07:13;21.90;99.90
35559;DHT22;21661;50.794;-1.066;2023-07-29T14:09:39;21.90;99.90
35559;DHT22;21661;50.794;-1.066;2023-07-29T14:12:05;21.90;99.90
35559;DHT22;21661;50.794;-1.066;2023-07-29T14:14:31;21.90;99.90
35559;DHT22;21661;50.794;-1.066;2023-07-29T14:16:57;21.90;99.90
35559;DHT22;21661;50.794;-1.066;2023-07-29T14:19:23;21.90;99.90
35559;DHT22;21661;50.794;-1.066;2023-07-29T14:21:49;22.00;99.90
35559;DHT22;21661;50.794;-1.066;2023-07-29T14:24:14;21.90;99.90
35559;DHT22;21661;50.794;-1.066;2023-07-29T14:26:41;21.80;99.90
35559;DHT22;21661;50.794;-1.066;2023-07-29T14:29:06;21.90;99.90
35559;DHT22;21661;50.794;-1.066;2023-07-29T14:31:32;21.90;99.90
35559;DHT22;21661;50.794;-1.066;2023-07-29T14:33:58;21.80;99.90
35559;DHT22;21661;50.794;-1.066;2023-07-29T14:36:24;21.90;99.90
35559;DHT22;21661;50.794;-1.066;2023-07-29T14:38:50;21.90;99.90
35559;DHT22;21661;50.794;-1.066;2023-07-29T14:41:16;22.00;99.90
35559;DHT22;21661;50.794;-1.066;2023-07-29T14:43:41;22.00;99.90
35559;DHT22;21661;50.794;-1.066;2023-07-29T14:46:07;21.90;99.90
35559;DHT22;21661;50.794;-1.066;2023-07-29T14:48:32;21.80;99.90
35559;DHT22;21661;50.794;-1.066;2023-07-29T14:50:58;21.90;99.90
35559;DHT22;21661;50.794;-1.066;2023-07-29T14:53:24;21.90;99.90
35559;DHT22;21661;50.794;-1.066;2023-07-29T14:55:50;21.90;99.90
35559;DHT22;21661;50.794;-1.066;2023-07-29T14:58:16;21.80;99.90
35559;DHT22;21661;50.794;-1.066;2023-07-29T15:00:41;21.90;99.90
35559;DHT22;21661;50.794;-1.066;2023-07-29T15:03:07;21.90;99.90
35559;DHT22;21661;50.794;-1.066;2023-07-29T15:05:33;21.90;99.90
35559;DHT22;21661;50.794;-1.066;2023-07-29T15:07:58;21.90;99.90
35559;DHT22;21661;50.794;-1.066;2023-07-29T15:10:24;21.80;99.90
35559;DHT22;21661;50.794;-1.066;2023-07-29T15:12:49;21.80;99.90
35559;DHT22;21661;50.794;-1.066;2023-07-29T15:15:15;21.80;99.90
35559;DHT22;21661;50.794;-1.066;2023-07-29T15:17:41;21.90;99.90
35559;DHT22;21661;50.794;-1.066;2023-07-29T15:20:06;21.90;99.90
35559;DHT22;21661;50.794;-1.066;2023-07-29T15:22:33;21.90;99.90
35559;DHT22;21661;50.794;-1.066;2023-07-29T15:24:58;21.90;99.90
35559;DHT22;21661;50.794;-1.066;2023-07-29T15:27:30;21.80;99.90
35559;DHT22;21661;50.794;-1.066;2023-07-29T15:29:56;21.80;99.90
35559;DHT22;21661;50.794;-1.066;2023-07-29T15:32:22;21.70;99.90
35559;DHT22;21661;50.794;-1.066;2023-07-29T15:34:49;21.80;99.90
35559;DHT22;21661;50.794;-1.066;2023-07-29T15:37:15;21.70;99.90